Time;durP1;ratioP1;P1;durP2;ratioP2;P2;SDS_P1;SDS_P2;PMS_P1;PMS_P2;Temp;Humidity;BMP_temperature;BMP_pressure;BME280_temperature;BME280_humidity;BME280_pressure;Samples;Min_cycle;Max_cycle;Signal;HPM_P1;HPM_P2
2022/06/06 00:01:17;;;;;;;92.93;29.17;;;;;;;;;;5053921;28;20029;-72
2022/06/06 00:03:44;;;;;;;92.43;29.85;;;;;;;;;;5054227;28;20025;-72
2022/06/06 00:06:11;;;;;;;89.78;29.25;;;;;;;;;;5037960;28;20379;-72
2022/06/06 00:08:38;;;;;;;105.30;33.58;;;;;;;;;;5034356;28;20029;-72
2022/06/06 00:11:04;;;;;;;95.20;32.30;;;;;;;;;;5050227;28;20028;-72
2022/06/06 00:13:31;;;;;;;99.03;31.50;;;;;;;;;;5054016;28;20036;-72
2022/06/06 00:15:57;;;;;;;92.78;31.33;;;;;;;;;;5054059;28;20029;-72
2022/06/06 00:18:23;;;;;;;97.50;31.50;;;;;;;;;;5054031;28;20025;-72
2022/06/06 00:20:49;;;;;;;81.13;28.63;;;;;;;;;;5053864;28;20146;-72
2022/06/06 00:23:15;;;;;;;79.25;27.65;;;;;;;;;;5053754;28;20100;-73
2022/06/06 00:25:41;;;;;;;73.40;26.30;;;;;;;;;;5053831;28;20458;-72
2022/06/06 00:28:08;;;;;;;75.25;26.10;;;;;;;;;;5053863;28;20029;-73
2022/06/06 00:30:34;;;;;;;83.78;28.08;;;;;;;;;;5053530;28;20096;-73
2022/06/06 00:35:44;;;;;;;67.65;23.90;;;;;;;;;;5053565;28;20052;-73
2022/06/06 00:38:10;;;;;;;59.60;21.83;;;;;;;;;;5053540;28;20464;-72
2022/06/06 00:40:36;;;;;;;70.20;24.05;;;;;;;;;;5053398;28;20036;-72
2022/06/06 00:43:03;;;;;;;62.58;23.75;;;;;;;;;;5053171;28;20048;-72
2022/06/06 00:45:29;;;;;;;59.42;22.35;;;;;;;;;;5053512;28;20025;-72
2022/06/06 00:47:59;;;;;;;65.15;21.80;;;;;;;;;;5053319;28;20090;-72
2022/06/06 00:50:35;;;;;;;59.58;22.85;;;;;;;;;;5053486;28;20356;-72
2022/06/06 00:53:01;;;;;;;55.90;21.73;;;;;;;;;;5053376;28;20085;-72
2022/06/06 00:55:29;;;;;;;61.72;21.80;;;;;;;;;;5053292;28;20454;-72
2022/06/06 00:58:05;;;;;;;56.50;20.70;;;;;;;;;;5051919;28;20398;-72
2022/06/06 01:00:31;;;;;;;55.75;20.42;;;;;;;;;;5053229;28;20707;-72
2022/06/06 01:02:58;;;;;;;53.17;19.95;;;;;;;;;;5052984;28;20036;-72
2022/06/06 01:05:24;;;;;;;57.42;19.67;;;;;;;;;;5053057;28;20033;-72
2022/06/06 01:07:51;;;;;;;54.80;19.42;;;;;;;;;;5053221;28;20013;-72
2022/06/06 01:10:18;;;;;;;59.22;20.83;;;;;;;;;;5052852;28;20025;-72
2022/06/06 01:12:47;;;;;;;54.38;18.88;;;;;;;;;;5052864;28;20485;-72
2022/06/06 01:15:14;;;;;;;56.45;18.67;;;;;;;;;;5053013;28;20032;-72
2022/06/06 01:17:59;;;;;;;55.30;19.83;;;;;;;;;;5052843;28;20075;-72
2022/06/06 01:20:25;;;;;;;63.20;21.48;;;;;;;;;;5052840;28;20029;-72
2022/06/06 01:22:57;;;;;;;61.58;21.10;;;;;;;;;;5052725;28;20049;-72
2022/06/06 01:25:23;;;;;;;62.97;23.95;;;;;;;;;;5052755;28;20040;-72
2022/06/06 01:28:08;;;;;;;63.67;21.60;;;;;;;;;;5052884;28;20103;-72
2022/06/06 01:30:43;;;;;;;66.95;21.92;;;;;;;;;;5052420;28;20021;-72
2022/06/06 01:33:11;;;;;;;66.55;22.27;;;;;;;;;;5052378;28;20021;-72
2022/06/06 01:35:39;;;;;;;55.13;21.63;;;;;;;;;;5052336;28;20071;-72
2022/06/06 01:38:06;;;;;;;58.85;20.38;;;;;;;;;;5052514;28;20021;-72
2022/06/06 01:40:37;;;;;;;55.15;20.92;;;;;;;;;;5052319;28;20029;-72
2022/06/06 01:43:06;;;;;;;52.63;18.70;;;;;;;;;;5052058;28;20132;-72
2022/06/06 01:45:44;;;;;;;57.55;19.33;;;;;;;;;;5052303;28;20040;-72
2022/06/06 01:48:13;;;;;;;56.80;19.02;;;;;;;;;;5052271;28;20099;-72
2022/06/06 01:50:41;;;;;;;64.15;20.33;;;;;;;;;;5051932;28;20455;-72
2022/06/06 01:53:10;;;;;;;63.65;19.25;;;;;;;;;;5052012;28;20029;-72
2022/06/06 01:55:38;;;;;;;53.28;17.92;;;;;;;;;;5052168;28;20029;-72
2022/06/06 01:58:06;;;;;;;48.63;17.83;;;;;;;;;;5052093;28;20021;-72
2022/06/06 02:00:34;;;;;;;50.63;17.85;;;;;;;;;;5051953;28;20518;-72
2022/06/06 02:03:01;;;;;;;52.85;18.33;;;;;;;;;;5051825;28;20356;-72
2022/06/06 02:05:27;;;;;;;59.58;19.50;;;;;;;;;;5051940;28;20017;-72
2022/06/06 02:07:53;;;;;;;47.40;17.83;;;;;;;;;;5051903;28;20017;-72
2022/06/06 02:10:20;;;;;;;50.75;18.38;;;;;;;;;;5051892;28;20020;-72
2022/06/06 02:12:46;;;;;;;51.08;18.90;;;;;;;;;;5051731;28;20086;-72
2022/06/06 02:15:15;;;;;;;51.17;18.10;;;;;;;;;;5051847;28;20036;-72
2022/06/06 02:17:41;;;;;;;43.80;17.20;;;;;;;;;;5051874;28;20040;-73
2022/06/06 02:20:08;;;;;;;47.45;17.83;;;;;;;;;;5051683;28;20036;-72
2022/06/06 02:22:35;;;;;;;53.97;18.17;;;;;;;;;;5051691;28;20079;-73
2022/06/06 02:25:02;;;;;;;51.60;18.13;;;;;;;;;;5051590;28;20025;-72
2022/06/06 02:27:29;;;;;;;52.25;18.52;;;;;;;;;;5051587;28;20502;-73
2022/06/06 02:29:55;;;;;;;49.28;19.08;;;;;;;;;;5051521;28;20071;-72
2022/06/06 02:32:21;;;;;;;52.20;19.10;;;;;;;;;;5051447;28;20039;-72
2022/06/06 02:34:47;;;;;;;57.28;20.00;;;;;;;;;;5051680;28;20033;-72
2022/06/06 02:37:14;;;;;;;56.95;20.33;;;;;;;;;;5051580;28;20107;-73
2022/06/06 02:39:40;;;;;;;63.92;20.10;;;;;;;;;;5051561;28;20028;-73
2022/06/06 02:42:06;;;;;;;62.80;22.02;;;;;;;;;;5051279;28;20103;-72
2022/06/06 02:44:32;;;;;;;56.30;20.88;;;;;;;;;;5051386;28;20075;-72
2022/06/06 02:46:59;;;;;;;55.53;20.42;;;;;;;;;;5051557;28;20035;-72
2022/06/06 02:49:25;;;;;;;57.05;18.77;;;;;;;;;;5051422;28;20532;-72
2022/06/06 02:51:51;;;;;;;57.05;19.13;;;;;;;;;;5051445;28;20041;-72
2022/06/06 02:54:17;;;;;;;54.00;19.35;;;;;;;;;;5051545;28;20069;-72
2022/06/06 02:56:43;;;;;;;49.35;18.52;;;;;;;;;;5051297;28;20557;-73
2022/06/06 02:59:09;;;;;;;53.75;17.88;;;;;;;;;;5051418;28;20100;-72
2022/06/06 03:01:36;;;;;;;59.92;18.90;;;;;;;;;;5051312;28;20075;-72
2022/06/06 03:04:02;;;;;;;59.92;18.80;;;;;;;;;;5053317;28;20147;-72
2022/06/06 03:06:41;;;;;;;50.53;17.92;;;;;;;;;;5055418;28;20593;-72
2022/06/06 03:09:26;;;;;;;53.55;17.30;;;;;;;;;;5055281;28;20070;-72
2022/06/06 03:12:04;;;;;;;49.85;17.30;;;;;;;;;;5055269;28;20061;-72
2022/06/06 03:14:37;;;;;;;50.17;16.90;;;;;;;;;;5055236;28;20052;-72
2022/06/06 03:22:49;;;;;;;55.25;18.20;;;;;;;;;;5055050;28;20363;-72
2022/06/06 03:25:20;;;;;;;54.53;18.48;;;;;;;;;;5054881;28;20013;-72
2022/06/06 03:27:52;;;;;;;49.17;17.42;;;;;;;;;;5055084;28;20447;-72
2022/06/06 03:30:21;;;;;;;56.03;18.15;;;;;;;;;;5054862;28;20497;-73
2022/06/06 03:32:50;;;;;;;57.60;18.80;;;;;;;;;;5054902;28;20029;-72
2022/06/06 03:35:19;;;;;;;59.10;19.05;;;;;;;;;;5054912;28;20021;-73
2022/06/06 03:37:45;;;;;;;57.67;17.80;;;;;;;;;;5055015;28;20029;-72
2022/06/06 03:40:17;;;;;;;62.22;20.35;;;;;;;;;;5054847;28;20071;-72
2022/06/06 03:42:46;;;;;;;61.20;18.45;;;;;;;;;;5054739;28;20651;-72
2022/06/06 03:45:15;;;;;;;63.85;19.60;;;;;;;;;;5054869;28;20332;-72
2022/06/06 03:48:00;;;;;;;61.05;19.02;;;;;;;;;;5054643;28;20021;-72
2022/06/06 03:50:29;;;;;;;64.30;17.75;;;;;;;;;;5054789;28;20056;-72
2022/06/06 03:53:10;;;;;;;63.53;19.27;;;;;;;;;;5054762;28;20059;-73
2022/06/06 03:55:36;;;;;;;66.43;18.43;;;;;;;;;;5054612;28;20025;-73
2022/06/06 03:58:03;;;;;;;66.40;19.70;;;;;;;;;;5054645;28;20059;-72
2022/06/06 04:00:30;;;;;;;58.08;19.10;;;;;;;;;;5054521;28;20017;-72
2022/06/06 04:02:58;;;;;;;56.67;18.83;;;;;;;;;;5054349;28;20455;-72
2022/06/06 04:05:24;;;;;;;63.63;18.40;;;;;;;;;;5044535;28;20047;-72
2022/06/06 04:07:50;;;;;;;63.13;19.67;;;;;;;;;;5034469;28;20380;-72
2022/06/06 04:10:16;;;;;;;65.30;19.77;;;;;;;;;;5044404;28;20074;-72
2022/06/06 04:13:01;;;;;;;61.65;20.42;;;;;;;;;;5054149;28;20033;-72
2022/06/06 04:16:02;;;;;;;65.00;19.75;;;;;;;;;;5053784;28;20029;-72
2022/06/06 04:18:31;;;;;;;63.08;19.08;;;;;;;;;;5012177;28;20037;-72
2022/06/06 04:21:09;;;;;;;59.72;19.73;;;;;;;;;;5012086;28;20069;-72
2022/06/06 04:23:53;;;;;;;70.45;20.40;;;;;;;;;;4995400;28;20041;-72
2022/06/06 04:26:34;;;;;;;62.55;18.95;;;;;;;;;;5011798;28;20038;-72
2022/06/06 04:29:15;;;;;;;54.05;18.90;;;;;;;;;;5011938;28;20092;-72
2022/06/06 04:31:49;;;;;;;61.33;19.55;;;;;;;;;;5011744;28;20396;-72
2022/06/06 04:34:30;;;;;;;61.05;19.88;;;;;;;;;;5011872;28;20437;-72
2022/06/06 04:37:28;;;;;;;61.42;19.20;;;;;;;;;;5011698;28;20061;-72
2022/06/06 04:40:01;;;;;;;61.75;18.90;;;;;;;;;;4953274;29;20110;-72
2022/06/06 04:42:46;;;;;;;52.17;17.77;;;;;;;;;;4953039;29;20445;-72
2022/06/06 04:45:21;;;;;;;60.50;18.85;;;;;;;;;;4953357;29;20097;-72
2022/06/06 04:47:47;;;;;;;50.90;17.70;;;;;;;;;;4953273;29;20182;-72
2022/06/06 04:50:15;;;;;;;55.90;18.75;;;;;;;;;;4953198;29;20043;-72
2022/06/06 04:52:42;;;;;;;58.88;19.10;;;;;;;;;;4987627;28;20046;-73
2022/06/06 04:55:09;;;;;;;64.00;19.90;;;;;;;;;;5011344;28;20048;-74
2022/06/06 04:57:37;;;;;;;53.90;19.33;;;;;;;;;;5011334;28;20038;-73
2022/06/06 05:00:04;;;;;;;62.35;23.20;;;;;;;;;;5011448;28;20040;-72
2022/06/06 05:02:31;;;;;;;55.10;21.08;;;;;;;;;;5011198;28;20038;-72
2022/06/06 05:04:57;;;;;;;61.42;22.85;;;;;;;;;;5011115;28;20091;-72
2022/06/06 05:07:40;;;;;;;53.88;22.52;;;;;;;;;;5011267;28;20913;-72
2022/06/06 05:10:16;;;;;;;54.35;22.02;;;;;;;;;;5011087;28;20034;-72
2022/06/06 05:12:42;;;;;;;49.47;21.00;;;;;;;;;;5011119;28;20132;-72
2022/06/06 05:15:21;;;;;;;44.75;21.23;;;;;;;;;;5026174;28;20419;-72
2022/06/06 05:17:50;;;;;;;43.90;19.42;;;;;;;;;;5052976;28;20025;-72
2022/06/06 05:20:35;;;;;;;40.20;20.02;;;;;;;;;;5052977;28;20052;-73
2022/06/06 05:23:01;;;;;;;36.88;17.80;;;;;;;;;;5052950;28;20033;-72
2022/06/06 05:25:46;;;;;;;39.95;19.25;;;;;;;;;;5052540;28;20104;-73
2022/06/06 05:28:31;;;;;;;40.08;18.13;;;;;;;;;;5052852;28;20033;-72
2022/06/06 05:31:17;;;;;;;33.80;17.10;;;;;;;;;;5052464;28;20021;-72
2022/06/06 05:33:52;;;;;;;33.20;16.10;;;;;;;;;;5052376;28;20129;-73
2022/06/06 05:36:24;;;;;;;38.40;17.42;;;;;;;;;;5052603;28;20071;-72
2022/06/06 05:39:00;;;;;;;35.30;16.30;;;;;;;;;;5047894;28;20391;-74
2022/06/06 05:41:55;;;;;;;31.85;15.90;;;;;;;;;;5032411;28;20109;-73
2022/06/06 05:44:33;;;;;;;32.08;16.50;;;;;;;;;;4971318;28;20034;-73
2022/06/06 05:46:59;;;;;;;38.35;17.58;;;;;;;;;;4971462;28;20023;-74
2022/06/06 05:49:34;;;;;;;39.00;17.67;;;;;;;;;;4971345;28;20077;-73
2022/06/06 05:52:07;;;;;;;32.75;17.80;;;;;;;;;;4971492;28;20031;-73
2022/06/06 05:54:39;;;;;;;43.60;18.83;;;;;;;;;;4971361;28;20119;-73
2022/06/06 05:57:30;;;;;;;33.92;16.75;;;;;;;;;;4970804;28;20026;-74
2022/06/06 05:59:56;;;;;;;33.33;15.07;;;;;;;;;;4971197;28;20478;-74
2022/06/06 06:02:34;;;;;;;32.83;16.20;;;;;;;;;;4970797;28;20138;-73
2022/06/06 06:05:02;;;;;;;29.27;13.95;;;;;;;;;;4977063;28;20030;-73
2022/06/06 06:07:47;;;;;;;23.63;13.80;;;;;;;;;;4990390;28;20124;-73
2022/06/06 06:10:19;;;;;;;25.50;12.68;;;;;;;;;;4990218;28;20031;-73
2022/06/06 06:12:45;;;;;;;29.15;12.02;;;;;;;;;;4990285;28;20026;-74
2022/06/06 06:15:13;;;;;;;23.90;10.93;;;;;;;;;;4990126;28;20065;-74
2022/06/06 06:17:40;;;;;;;14.13;9.10;;;;;;;;;;4990011;28;20085;-74
2022/06/06 06:20:15;;;;;;;18.90;9.40;;;;;;;;;;5004623;28;20029;-74
2022/06/06 06:22:44;;;;;;;14.32;7.90;;;;;;;;;;5050337;28;20432;-74
2022/06/06 06:25:10;;;;;;;18.05;9.05;;;;;;;;;;5051695;28;20040;-73
2022/06/06 06:27:37;;;;;;;15.55;8.23;;;;;;;;;;5051523;28;20017;-74
2022/06/06 06:30:07;;;;;;;18.60;8.50;;;;;;;;;;5049475;28;20045;-73
2022/06/06 06:32:52;;;;;;;16.85;8.50;;;;;;;;;;5031652;28;20105;-74
2022/06/06 06:35:24;;;;;;;13.23;7.90;;;;;;;;;;5048784;28;20115;-74
2022/06/06 06:37:50;;;;;;;13.07;8.10;;;;;;;;;;5049032;28;20375;-73
2022/06/06 06:40:35;;;;;;;17.08;7.78;;;;;;;;;;5049739;28;20182;-73
2022/06/06 06:43:10;;;;;;;14.20;7.28;;;;;;;;;;5050356;28;20399;-73
2022/06/06 06:46:05;;;;;;;12.70;6.20;;;;;;;;;;5051000;28;20036;-74
2022/06/06 06:48:33;;;;;;;12.13;6.50;;;;;;;;;;4980509;28;20506;-74
2022/06/06 06:51:05;;;;;;;13.50;7.05;;;;;;;;;;4980737;28;20023;-74
2022/06/06 06:53:31;;;;;;;11.70;7.82;;;;;;;;;;4981268;28;20062;-73
2022/06/06 06:55:57;;;;;;;15.68;7.65;;;;;;;;;;4978711;28;20114;-74
2022/06/06 06:58:46;;;;;;;10.50;6.90;;;;;;;;;;4964165;28;20034;-73
2022/06/06 07:01:17;;;;;;;12.02;6.45;;;;;;;;;;4950410;29;20047;-73
2022/06/06 07:09:44;;;;;;;14.75;6.32;;;;;;;;;;4949430;29;20034;-74
2022/06/06 07:12:10;;;;;;;10.98;6.75;;;;;;;;;;4950343;29;20040;-74
2022/06/06 07:14:56;;;;;;;13.38;7.40;;;;;;;;;;4950367;29;20063;-74
2022/06/06 07:17:23;;;;;;;13.45;6.75;;;;;;;;;;4941883;29;20390;-74
2022/06/06 07:19:53;;;;;;;9.27;6.00;;;;;;;;;;4940345;29;20087;-74
2022/06/06 07:22:20;;;;;;;11.80;6.57;;;;;;;;;;4939807;29;20039;-73
2022/06/06 07:24:48;;;;;;;10.25;6.35;;;;;;;;;;4974605;28;20510;-73
2022/06/06 07:27:14;;;;;;;12.35;6.38;;;;;;;;;;5015981;28;20037;-74
2022/06/06 07:29:40;;;;;;;12.52;6.45;;;;;;;;;;5014984;28;20029;-74
2022/06/06 07:32:18;;;;;;;14.27;5.82;;;;;;;;;;5016252;28;20041;-73
2022/06/06 07:34:44;;;;;;;10.90;5.75;;;;;;;;;;5017464;28;20407;-74
2022/06/06 07:37:28;;;;;;;10.18;5.53;;;;;;;;;;5018723;28;20034;-74
2022/06/06 07:39:54;;;;;;;10.65;5.47;;;;;;;;;;5049084;28;20029;-73
2022/06/06 07:42:41;;;;;;;8.38;4.90;;;;;;;;;;5050202;28;20056;-73
2022/06/06 07:45:16;;;;;;;8.65;5.63;;;;;;;;;;5048047;28;20033;-73
2022/06/06 07:47:51;;;;;;;9.95;4.50;;;;;;;;;;5050413;28;20155;-73
2022/06/06 07:50:21;;;;;;;9.68;4.63;;;;;;;;;;5052540;28;20025;-74
2022/06/06 07:53:02;;;;;;;9.05;4.53;;;;;;;;;;5051522;28;20053;-77
2022/06/06 07:55:33;;;;;;;6.88;4.07;;;;;;;;;;5051701;28;20100;-74
2022/06/06 07:58:08;;;;;;;5.30;3.75;;;;;;;;;;5053764;28;20017;-74
2022/06/06 08:00:34;;;;;;;7.43;3.75;;;;;;;;;;5052428;28;20033;-74
2022/06/06 08:03:14;;;;;;;6.78;3.72;;;;;;;;;;5053875;28;20075;-73
2022/06/06 08:05:43;;;;;;;5.35;3.65;;;;;;;;;;5053965;28;20024;-74
2022/06/06 08:08:38;;;;;;;4.60;3.35;;;;;;;;;;5054237;28;20033;-73
2022/06/06 08:11:14;;;;;;;5.65;3.00;;;;;;;;;;5031997;28;20040;-75
2022/06/06 08:13:45;;;;;;;5.63;2.80;;;;;;;;;;5054058;28;20020;-75
2022/06/06 08:16:13;;;;;;;7.82;2.25;;;;;;;;;;5054081;28;20029;-75
2022/06/06 08:18:54;;;;;;;3.65;2.03;;;;;;;;;;5053930;28;20383;-75
2022/06/06 08:21:20;;;;;;;2.75;1.90;;;;;;;;;;5053954;28;20033;-75
2022/06/06 08:23:48;;;;;;;6.15;2.50;;;;;;;;;;5053943;28;20044;-75
2022/06/06 08:26:15;;;;;;;5.00;2.70;;;;;;;;;;5053888;28;20067;-76
2022/06/06 08:28:43;;;;;;;6.43;3.47;;;;;;;;;;5053840;28;20116;-75
2022/06/06 08:31:09;;;;;;;6.63;2.97;;;;;;;;;;5051948;28;20442;-75
2022/06/06 08:33:35;;;;;;;5.13;2.47;;;;;;;;;;5053662;28;20153;-76
2022/06/06 08:36:12;;;;;;;6.38;2.30;;;;;;;;;;5053864;28;20063;-75
2022/06/06 08:38:47;;;;;;;5.28;2.00;;;;;;;;;;5053670;28;20025;-76
2022/06/06 08:41:36;;;;;;;5.47;2.30;;;;;;;;;;5053503;28;20116;-76
2022/06/06 08:44:05;;;;;;;3.58;1.88;;;;;;;;;;5053476;28;20074;-74
2022/06/06 08:46:48;;;;;;;2.33;2.00;;;;;;;;;;5053912;28;20589;-76
2022/06/06 08:52:29;;;;;;;5.18;1.95;;;;;;;;;;5054524;28;20028;-75
2022/06/06 08:55:14;;;;;;;2.20;1.60;;;;;;;;;;5054040;28;20087;-76
2022/06/06 08:57:58;;;;;;;3.67;1.77;;;;;;;;;;5052995;28;20025;-73
2022/06/06 09:00:43;;;;;;;5.40;1.48;;;;;;;;;;5053093;28;20442;-75
2022/06/06 09:03:10;;;;;;;4.50;1.27;;;;;;;;;;5052234;28;20195;-74
2022/06/06 09:05:55;;;;;;;2.47;1.42;;;;;;;;;;5052087;28;20070;-74
2022/06/06 09:08:40;;;;;;;2.92;1.10;;;;;;;;;;5049986;28;20013;-73
2022/06/06 09:11:25;;;;;;;4.75;1.40;;;;;;;;;;5049161;28;20013;-74
2022/06/06 09:14:00;;;;;;;2.85;1.17;;;;;;;;;;5050747;28;20025;-74
2022/06/06 09:16:44;;;;;;;6.32;1.38;;;;;;;;;;5050253;28;20104;-73
2022/06/06 09:19:15;;;;;;;2.88;1.00;;;;;;;;;;5050914;28;20033;-73
2022/06/06 09:21:55;;;;;;;4.63;1.10;;;;;;;;;;5052321;28;20059;-73
2022/06/06 09:24:38;;;;;;;3.97;1.15;;;;;;;;;;5052524;28;20027;-73
2022/06/06 09:27:23;;;;;;;3.15;1.20;;;;;;;;;;5052527;28;20033;-73
2022/06/06 09:30:07;;;;;;;4.00;1.30;;;;;;;;;;5052246;28;20100;-73
2022/06/06 09:32:42;;;;;;;3.88;1.08;;;;;;;;;;5052425;28;20029;-74
2022/06/06 09:35:11;;;;;;;5.40;0.90;;;;;;;;;;5052383;28;20029;-73
2022/06/06 09:37:43;;;;;;;3.63;1.00;;;;;;;;;;5052680;28;20407;-75
2022/06/06 09:40:16;;;;;;;2.83;0.90;;;;;;;;;;5052335;28;20040;-75
2022/06/06 09:42:54;;;;;;;3.05;0.90;;;;;;;;;;5052090;28;20053;-76
2022/06/06 09:45:20;;;;;;;3.75;0.90;;;;;;;;;;5052229;28;20364;-75
2022/06/06 09:47:59;;;;;;;4.13;0.98;;;;;;;;;;5052099;28;20025;-75
2022/06/06 09:50:43;;;;;;;4.75;0.80;;;;;;;;;;5052266;28;20086;-74
2022/06/06 09:53:28;;;;;;;1.42;0.77;;;;;;;;;;5052238;28;20032;-72
2022/06/06 09:59:03;;;;;;;1.55;0.80;;;;;;;;;;5052350;28;20174;-74
2022/06/06 10:01:48;;;;;;;3.22;0.93;;;;;;;;;;5051805;28;20056;-72
2022/06/06 10:04:19;;;;;;;8.80;1.00;;;;;;;;;;5051780;28;20494;-74
2022/06/06 10:07:04;;;;;;;4.28;1.20;;;;;;;;;;5031949;28;20025;-71
2022/06/06 10:09:46;;;;;;;2.53;1.10;;;;;;;;;;5031957;28;20025;-74
2022/06/06 10:12:31;;;;;;;2.33;1.10;;;;;;;;;;5031291;28;20138;-76
2022/06/06 10:14:57;;;;;;;3.40;0.85;;;;;;;;;;5030319;28;20134;-74
2022/06/06 10:17:23;;;;;;;2.95;1.23;;;;;;;;;;5030138;28;20052;-73
2022/06/06 10:19:49;;;;;;;2.72;0.85;;;;;;;;;;5030481;28;20044;-75
2022/06/06 10:22:22;;;;;;;1.83;0.95;;;;;;;;;;5051502;28;20033;-74
2022/06/06 10:25:03;;;;;;;1.50;0.70;;;;;;;;;;5051353;28;20037;-72
2022/06/06 10:27:30;;;;;;;2.53;1.00;;;;;;;;;;5050879;28;20024;-77
2022/06/06 10:30:11;;;;;;;3.22;0.70;;;;;;;;;;5047317;28;20411;-74
2022/06/06 10:32:40;;;;;;;1.40;0.70;;;;;;;;;;5051321;28;20316;-72
2022/06/06 10:35:16;;;;;;;2.78;0.90;;;;;;;;;;5051339;28;20064;-73
2022/06/06 10:38:01;;;;;;;2.95;0.70;;;;;;;;;;5049190;28;20029;-72
2022/06/06 10:40:40;;;;;;;4.60;1.65;;;;;;;;;;5048557;28;20108;-73
2022/06/06 10:43:14;;;;;;;1.63;0.70;;;;;;;;;;5044822;28;20122;-74
2022/06/06 10:45:48;;;;;;;2.40;0.85;;;;;;;;;;5051277;28;20021;-74
2022/06/06 10:48:16;;;;;;;2.28;0.80;;;;;;;;;;5051091;28;20040;-73
2022/06/06 10:53:50;;;;;;;3.20;0.70;;;;;;;;;;5049647;28;20549;-74
2022/06/06 10:56:33;;;;;;;4.85;0.63;;;;;;;;;;5050845;28;20426;-73
2022/06/06 10:59:22;;;;;;;5.25;1.00;;;;;;;;;;5048569;28;20152;-77
2022/06/06 11:01:48;;;;;;;5.40;1.15;;;;;;;;;;5049835;28;20336;-77
2022/06/06 11:04:23;;;;;;;1.77;0.70;;;;;;;;;;5048418;28;20033;-77
2022/06/06 11:06:52;;;;;;;2.85;0.88;;;;;;;;;;5051009;28;20044;-77
2022/06/06 11:09:23;;;;;;;3.70;1.05;;;;;;;;;;5051165;28;20033;-75
2022/06/06 11:12:01;;;;;;;4.68;0.70;;;;;;;;;;5051530;28;20028;-78
2022/06/06 11:14:32;;;;;;;7.22;0.80;;;;;;;;;;5051233;28;20054;-76
2022/06/06 11:17:16;;;;;;;4.18;0.70;;;;;;;;;;5051179;28;20058;-77
2022/06/06 11:19:53;;;;;;;3.58;1.00;;;;;;;;;;5051085;28;20518;-76
2022/06/06 11:22:38;;;;;;;4.57;1.02;;;;;;;;;;5030999;28;20541;-76
2022/06/06 11:25:09;;;;;;;2.15;1.05;;;;;;;;;;5033142;28;20353;-74
2022/06/06 11:27:44;;;;;;;2.65;0.90;;;;;;;;;;5034954;28;20025;-73
2022/06/06 11:30:29;;;;;;;2.72;1.27;;;;;;;;;;5036914;28;20139;-72
2022/06/06 11:33:07;;;;;;;2.38;1.15;;;;;;;;;;5054448;28;20029;-73
2022/06/06 11:35:36;;;;;;;3.65;1.48;;;;;;;;;;5054674;28;20025;-72
2022/06/06 11:38:23;;;;;;;3.25;1.08;;;;;;;;;;5053542;28;20112;-73
2022/06/06 11:41:09;;;;;;;;;;;;;;;;;;;;;
2022/06/06 11:44:13;;;;;;;1.67;0.90;;;;;;;;;;5054139;28;20041;-74
2022/06/06 11:46:48;;;;;;;3.97;1.30;;;;;;;;;;5052454;28;20036;-72
2022/06/06 11:49:33;;;;;;;3.72;1.20;;;;;;;;;;5052687;28;20410;-73
2022/06/06 11:52:08;;;;;;;4.55;1.30;;;;;;;;;;5053839;28;20024;-73
2022/06/06 11:54:47;;;;;;;3.03;1.40;;;;;;;;;;5052815;28;20412;-72
2022/06/06 11:57:13;;;;;;;6.28;1.55;;;;;;;;;;5051165;28;20040;-73
2022/06/06 12:00:14;;;;;;;4.72;1.70;;;;;;;;;;5053703;28;20036;-73
2022/06/06 12:02:47;;;;;;;5.88;1.50;;;;;;;;;;5049443;28;20244;-73
2022/06/06 12:05:25;;;;;;;3.03;1.50;;;;;;;;;;5053419;28;20021;-73
2022/06/06 12:07:55;;;;;;;2.50;1.50;;;;;;;;;;5050925;28;20040;-72
2022/06/06 12:10:25;;;;;;;2.15;1.40;;;;;;;;;;5054327;28;20032;-74
2022/06/06 12:12:51;;;;;;;3.00;1.67;;;;;;;;;;5053888;28;20025;-74
2022/06/06 12:15:23;;;;;;;6.90;1.65;;;;;;;;;;5053610;28;20492;-74
2022/06/06 12:18:16;;;;;;;3.45;1.77;;;;;;;;;;5053355;28;20025;-74
2022/06/06 12:21:17;;;;;;;5.15;1.80;;;;;;;;;;5050817;28;20037;-74
2022/06/06 12:23:54;;;;;;;6.13;2.22;;;;;;;;;;5011381;28;20038;-74
2022/06/06 12:26:24;;;;;;;3.42;1.80;;;;;;;;;;5011014;28;20066;-75
2022/06/06 12:28:50;;;;;;;5.63;2.97;;;;;;;;;;5010378;28;20026;-76
2022/06/06 12:31:36;;;;;;;4.90;2.22;;;;;;;;;;5010804;28;20038;-75
2022/06/06 12:34:06;;;;;;;2.15;1.70;;;;;;;;;;5011313;28;20034;-77
2022/06/06 12:36:51;;;;;;;2.78;1.45;;;;;;;;;;5011180;28;20077;-75
2022/06/06 12:39:34;;;;;;;5.45;1.50;;;;;;;;;;5011324;28;20488;-75
2022/06/06 12:42:09;;;;;;;3.97;1.50;;;;;;;;;;5010697;28;20065;-76
2022/06/06 12:44:49;;;;;;;4.32;1.50;;;;;;;;;;5010614;28;20042;-76
2022/06/06 12:47:41;;;;;;;2.40;1.38;;;;;;;;;;5002463;28;20440;-75
2022/06/06 12:50:13;;;;;;;2.87;1.07;;;;;;;;;;4976700;28;20035;-75
2022/06/06 12:52:58;;;;;;;1.92;1.42;;;;;;;;;;5001172;28;20261;-76
2022/06/06 12:55:44;;;;;;;5.40;1.50;;;;;;;;;;4999697;28;20098;-74
2022/06/06 12:58:22;;;;;;;5.18;1.67;;;;;;;;;;5032852;28;20517;-75
2022/06/06 13:03:41;;;;;;;;;;;;;;;;;;5052621;28;20116;-76
2022/06/06 13:06:35;;;;;;;5.45;1.63;;;;;;;;;;5052119;28;20381;-76
2022/06/06 13:09:22;;;;;;;3.40;2.10;;;;;;;;;;5051270;28;20079;-74
2022/06/06 13:11:53;;;;;;;6.30;2.15;;;;;;;;;;5050341;28;20028;-74
2022/06/06 13:14:37;;;;;;;8.18;1.90;;;;;;;;;;5052319;28;20021;-74
2022/06/06 13:17:25;;;;;;;6.10;2.25;;;;;;;;;;5051492;28;20024;-73
2022/06/06 13:20:05;;;;;;;8.27;1.85;;;;;;;;;;5051454;28;20046;-74
2022/06/06 13:22:37;;;;;;;5.28;2.47;;;;;;;;;;5052635;28;20467;-75
2022/06/06 13:25:06;;;;;;;6.97;2.95;;;;;;;;;;5051454;28;20032;-75
2022/06/06 13:27:55;;;;;;;4.68;2.70;;;;;;;;;;5051091;28;20085;-75
2022/06/06 13:30:31;;;;;;;4.55;2.85;;;;;;;;;;5050223;28;20017;-75
2022/06/06 13:33:06;;;;;;;6.43;3.78;;;;;;;;;;5049616;28;20464;-75
2022/06/06 13:35:52;;;;;;;9.65;3.17;;;;;;;;;;5051970;28;20031;-75
2022/06/06 13:38:27;;;;;;;8.13;3.38;;;;;;;;;;5006876;28;20490;-75
2022/06/06 13:41:08;;;;;;;9.25;3.10;;;;;;;;;;5009056;28;20038;-75
2022/06/06 13:43:49;;;;;;;8.57;4.28;;;;;;;;;;4989466;28;20252;-75
2022/06/06 13:46:27;;;;;;;8.88;3.53;;;;;;;;;;5007501;28;20064;-76
2022/06/06 13:48:56;;;;;;;6.20;3.33;;;;;;;;;;5000969;28;20030;-75
2022/06/06 13:51:40;;;;;;;4.70;3.28;;;;;;;;;;4998603;28;20026;-75
2022/06/06 13:54:10;;;;;;;4.72;3.55;;;;;;;;;;5008810;28;20034;-76
2022/06/06 13:56:43;;;;;;;6.88;3.35;;;;;;;;;;5008661;28;20029;-75
2022/06/06 13:59:28;;;;;;;5.65;3.75;;;;;;;;;;5008710;28;20109;-75
2022/06/06 14:02:00;;;;;;;7.13;3.90;;;;;;;;;;5006612;28;20073;-75
2022/06/06 14:04:45;;;;;;;5.07;3.95;;;;;;;;;;5008534;28;20137;-74
2022/06/06 14:07:14;;;;;;;9.07;3.97;;;;;;;;;;5008768;28;20337;-76
2022/06/06 14:09:43;;;;;;;10.10;5.13;;;;;;;;;;5008794;28;20026;-75
2022/06/06 14:12:27;;;;;;;7.75;4.72;;;;;;;;;;5006255;28;20034;-74
2022/06/06 14:15:00;;;;;;;7.68;4.63;;;;;;;;;;5020040;28;20045;-75
2022/06/06 14:17:28;;;;;;;8.20;5.07;;;;;;;;;;5050807;28;20028;-75
2022/06/06 14:19:57;;;;;;;9.35;5.30;;;;;;;;;;5051142;28;20021;-75
2022/06/06 14:22:30;;;;;;;6.45;4.40;;;;;;;;;;5050818;28;20510;-76
2022/06/06 14:24:58;;;;;;;6.57;4.90;;;;;;;;;;5050795;28;20370;-74
2022/06/06 14:27:24;;;;;;;8.80;5.50;;;;;;;;;;5051136;28;20021;-74
2022/06/06 14:29:50;;;;;;;6.18;4.60;;;;;;;;;;5049089;28;20105;-74
2022/06/06 14:32:33;;;;;;;4.75;3.35;;;;;;;;;;5048966;28;20107;-75
2022/06/06 14:35:00;;;;;;;4.35;2.45;;;;;;;;;;5049424;28;20033;-74
2022/06/06 14:37:29;;;;;;;1.73;1.15;;;;;;;;;;5049680;28;20069;-75
2022/06/06 14:39:59;;;;;;;1.48;0.93;;;;;;;;;;5049786;28;20017;-74
2022/06/06 14:42:45;;;;;;;3.58;1.30;;;;;;;;;;5050429;28;20124;-75
2022/06/06 14:45:13;;;;;;;2.03;1.00;;;;;;;;;;5048458;28;20439;-74
2022/06/06 14:47:51;;;;;;;2.63;1.02;;;;;;;;;;5051641;28;20104;-74
2022/06/06 14:53:12;;;;;;;4.05;1.00;;;;;;;;;;5049606;28;20031;-78
2022/06/06 14:55:38;;;;;;;1.17;0.73;;;;;;;;;;5045856;28;20051;-73
2022/06/06 14:58:13;;;;;;;0.85;0.50;;;;;;;;;;5049836;28;20029;-74
2022/06/06 15:00:53;;;;;;;2.88;0.30;;;;;;;;;;5054043;28;20033;-73
2022/06/06 15:03:19;;;;;;;0.32;0.32;;;;;;;;;;5054092;28;20029;-73
2022/06/06 15:05:46;;;;;;;4.43;1.20;;;;;;;;;;5053941;28;20379;-75
2022/06/06 15:08:22;;;;;;;1.17;0.40;;;;;;;;;;5052515;28;20449;-77
2022/06/06 15:11:12;;;;;;;2.55;0.93;;;;;;;;;;5059552;28;20102;-74
2022/06/06 15:13:41;;;;;;;1.25;0.45;;;;;;;;;;5061489;28;20033;-71
2022/06/06 15:16:12;;;;;;;4.32;0.70;;;;;;;;;;5064125;28;20078;-72
2022/06/06 15:18:45;;;;;;;2.65;0.90;;;;;;;;;;5050012;28;20033;-72
2022/06/06 15:21:21;;;;;;;2.17;0.70;;;;;;;;;;5053951;28;20071;-72
2022/06/06 15:23:59;;;;;;;0.70;0.60;;;;;;;;;;5051264;28;20422;-73
2022/06/06 15:26:35;;;;;;;2.65;0.85;;;;;;;;;;5051148;28;20024;-73
2022/06/06 15:32:34;;;;;;;3.88;1.10;;;;;;;;;;5007570;28;20057;-74
2022/06/06 15:35:08;;;;;;;1.80;0.75;;;;;;;;;;4995842;28;20128;-74
2022/06/06 15:37:50;;;;;;;1.13;1.02;;;;;;;;;;4995087;28;20073;-74
2022/06/06 15:40:23;;;;;;;4.17;1.20;;;;;;;;;;5008394;28;20560;-74
2022/06/06 15:43:08;;;;;;;2.08;1.10;;;;;;;;;;4994999;28;20042;-74
2022/06/06 15:46:08;;;;;;;5.22;1.52;;;;;;;;;;5007249;28;20018;-72